sensor_id;sensor_type;location;lat;lon;timestamp;temperature;humidity
18613;DHT22;9436;52.152;21.032;2023-01-20T00:00:45;3.50;99.90
18613;DHT22;9436;52.152;21.032;2023-01-20T00:03:13;3.60;99.90
18613;DHT22;9436;52.152;21.032;2023-01-20T00:05:49;3.60;99.90
18613;DHT22;9436;52.152;21.032;2023-01-20T00:08:16;3.60;99.90
18613;DHT22;9436;52.152;21.032;2023-01-20T00:10:43;3.60;99.90
18613;DHT22;9436;52.152;21.032;2023-01-20T00:13:11;3.50;99.90
18613;DHT22;9436;52.152;21.032;2023-01-20T00:15:38;3.50;99.90
18613;DHT22;9436;52.152;21.032;2023-01-20T00:18:05;3.40;99.90
18613;DHT22;9436;52.152;21.032;2023-01-20T00:20:34;3.30;99.90
18613;DHT22;9436;52.152;21.032;2023-01-20T00:23:01;3.30;99.90
18613;DHT22;9436;52.152;21.032;2023-01-20T00:25:28;3.30;99.90
18613;DHT22;9436;52.152;21.032;2023-01-20T00:27:55;3.30;99.90
18613;DHT22;9436;52.152;21.032;2023-01-20T00:30:22;3.30;99.90
18613;DHT22;9436;52.152;21.032;2023-01-20T00:32:49;3.20;99.90
18613;DHT22;9436;52.152;21.032;2023-01-20T00:35:16;3.20;99.90
18613;DHT22;9436;52.152;21.032;2023-01-20T00:37:45;3.20;99.90
18613;DHT22;9436;52.152;21.032;2023-01-20T00:40:12;3.10;99.90
18613;DHT22;9436;52.152;21.032;2023-01-20T00:42:39;3.10;99.90
18613;DHT22;9436;52.152;21.032;2023-01-20T00:45:07;3.10;99.90
18613;DHT22;9436;52.152;21.032;2023-01-20T00:47:34;3.20;99.90
18613;DHT22;9436;52.152;21.032;2023-01-20T00:50:01;3.20;99.90
18613;DHT22;9436;52.152;21.032;2023-01-20T00:52:28;3.20;99.90
18613;DHT22;9436;52.152;21.032;2023-01-20T00:54:57;3.30;99.90
18613;DHT22;9436;52.152;21.032;2023-01-20T00:57:24;3.30;99.90
18613;DHT22;9436;52.152;21.032;2023-01-20T00:59:51;3.30;99.90
18613;DHT22;9436;52.152;21.032;2023-01-20T01:02:18;3.30;99.90
18613;DHT22;9436;52.152;21.032;2023-01-20T01:04:48;3.30;99.90
18613;DHT22;9436;52.152;21.032;2023-01-20T01:07:16;3.20;99.90
18613;DHT22;9436;52.152;21.032;2023-01-20T01:09:44;3.10;99.90
18613;DHT22;9436;52.152;21.032;2023-01-20T01:12:13;3.10;99.90
18613;DHT22;9436;52.152;21.032;2023-01-20T01:14:40;3.10;99.90
18613;DHT22;9436;52.152;21.032;2023-01-20T01:17:07;3.10;99.90
18613;DHT22;9436;52.152;21.032;2023-01-20T01:19:34;3.20;99.90
18613;DHT22;9436;52.152;21.032;2023-01-20T01:22:01;3.20;99.90
18613;DHT22;9436;52.152;21.032;2023-01-20T01:24:28;3.20;99.90
18613;DHT22;9436;52.152;21.032;2023-01-20T01:26:55;3.20;99.90
18613;DHT22;9436;52.152;21.032;2023-01-20T01:29:23;3.20;99.90
18613;DHT22;9436;52.152;21.032;2023-01-20T01:31:50;3.10;99.90
18613;DHT22;9436;52.152;21.032;2023-01-20T01:34:18;3.20;99.90
18613;DHT22;9436;52.152;21.032;2023-01-20T01:36:45;3.20;99.90
18613;DHT22;9436;52.152;21.032;2023-01-20T01:39:12;3.00;99.90
18613;DHT22;9436;52.152;21.032;2023-01-20T01:41:39;3.10;99.90
18613;DHT22;9436;52.152;21.032;2023-01-20T01:44:08;3.10;99.90
18613;DHT22;9436;52.152;21.032;2023-01-20T01:46:37;3.10;99.90
18613;DHT22;9436;52.152;21.032;2023-01-20T01:49:08;3.10;99.90
18613;DHT22;9436;52.152;21.032;2023-01-20T01:51:42;3.00;99.90
18613;DHT22;9436;52.152;21.032;2023-01-20T01:54:12;3.10;99.90
18613;DHT22;9436;52.152;21.032;2023-01-20T01:56:40;3.10;99.90
18613;DHT22;9436;52.152;21.032;2023-01-20T01:59:08;3.10;99.90
18613;DHT22;9436;52.152;21.032;2023-01-20T02:01:39;3.20;99.90
18613;DHT22;9436;52.152;21.032;2023-01-20T02:04:10;3.20;99.90
18613;DHT22;9436;52.152;21.032;2023-01-20T02:06:40;3.10;99.90
18613;DHT22;9436;52.152;21.032;2023-01-20T02:09:08;3.10;99.90
18613;DHT22;9436;52.152;21.032;2023-01-20T02:11:38;3.10;99.90
18613;DHT22;9436;52.152;21.032;2023-01-20T02:14:06;3.00;99.90
18613;DHT22;9436;52.152;21.032;2023-01-20T02:16:46;3.00;99.90
18613;DHT22;9436;52.152;21.032;2023-01-20T02:22:24;3.10;99.90
18613;DHT22;9436;52.152;21.032;2023-01-20T02:28:17;3.10;99.90
18613;DHT22;9436;52.152;21.032;2023-01-20T02:33:43;3.10;99.90
18613;DHT22;9436;52.152;21.032;2023-01-20T02:36:16;3.10;99.90
18613;DHT22;9436;52.152;21.032;2023-01-20T02:38:50;3.10;99.90
18613;DHT22;9436;52.152;21.032;2023-01-20T02:41:26;3.10;99.90
18613;DHT22;9436;52.152;21.032;2023-01-20T02:44:02;3.10;99.90
18613;DHT22;9436;52.152;21.032;2023-01-20T02:46:32;3.10;99.90
18613;DHT22;9436;52.152;21.032;2023-01-20T02:49:08;3.00;99.90
18613;DHT22;9436;52.152;21.032;2023-01-20T02:51:41;3.10;99.90
18613;DHT22;9436;52.152;21.032;2023-01-20T02:54:12;3.00;99.90
18613;DHT22;9436;52.152;21.032;2023-01-20T02:56:41;3.00;99.90
18613;DHT22;9436;52.152;21.032;2023-01-20T02:59:10;3.00;99.90
18613;DHT22;9436;52.152;21.032;2023-01-20T03:01:40;3.00;99.90
18613;DHT22;9436;52.152;21.032;2023-01-20T03:04:12;3.00;99.90
18613;DHT22;9436;52.152;21.032;2023-01-20T03:06:43;2.90;99.90
18613;DHT22;9436;52.152;21.032;2023-01-20T03:09:14;2.90;99.90
18613;DHT22;9436;52.152;21.032;2023-01-20T03:11:47;2.90;99.90
18613;DHT22;9436;52.152;21.032;2023-01-20T03:14:16;2.90;99.90
18613;DHT22;9436;52.152;21.032;2023-01-20T03:16:44;3.00;99.90
18613;DHT22;9436;52.152;21.032;2023-01-20T03:19:29;3.00;99.90
18613;DHT22;9436;52.152;21.032;2023-01-20T03:21:56;3.10;99.90
18613;DHT22;9436;52.152;21.032;2023-01-20T03:24:25;3.10;99.90
18613;DHT22;9436;52.152;21.032;2023-01-20T03:26:55;3.10;99.90
18613;DHT22;9436;52.152;21.032;2023-01-20T03:29:22;3.20;99.90
18613;DHT22;9436;52.152;21.032;2023-01-20T03:31:51;3.30;99.90
18613;DHT22;9436;52.152;21.032;2023-01-20T03:34:22;3.30;99.90
18613;DHT22;9436;52.152;21.032;2023-01-20T03:36:53;3.30;99.90
18613;DHT22;9436;52.152;21.032;2023-01-20T03:39:22;3.30;99.90
18613;DHT22;9436;52.152;21.032;2023-01-20T03:41:59;3.30;99.90
18613;DHT22;9436;52.152;21.032;2023-01-20T03:44:35;3.40;99.90
18613;DHT22;9436;52.152;21.032;2023-01-20T03:47:09;3.30;99.90
18613;DHT22;9436;52.152;21.032;2023-01-20T03:49:45;3.40;99.90
18613;DHT22;9436;52.152;21.032;2023-01-20T03:52:24;3.40;99.90
18613;DHT22;9436;52.152;21.032;2023-01-20T03:54:57;3.50;99.90
18613;DHT22;9436;52.152;21.032;2023-01-20T03:57:32;3.60;99.90
18613;DHT22;9436;52.152;21.032;2023-01-20T04:00:03;3.60;99.90
18613;DHT22;9436;52.152;21.032;2023-01-20T04:02:32;3.60;99.90
18613;DHT22;9436;52.152;21.032;2023-01-20T04:05:01;3.50;99.90
18613;DHT22;9436;52.152;21.032;2023-01-20T04:07:31;3.40;99.90
18613;DHT22;9436;52.152;21.032;2023-01-20T04:10:02;3.40;99.90
18613;DHT22;9436;52.152;21.032;2023-01-20T04:12:30;3.50;99.90
18613;DHT22;9436;52.152;21.032;2023-01-20T04:14:57;3.40;99.90
18613;DHT22;9436;52.152;21.032;2023-01-20T04:17:26;3.40;99.90
18613;DHT22;9436;52.152;21.032;2023-01-20T04:19:54;3.30;99.90
18613;DHT22;9436;52.152;21.032;2023-01-20T04:22:27;3.40;99.90
18613;DHT22;9436;52.152;21.032;2023-01-20T04:25:00;3.30;99.90
18613;DHT22;9436;52.152;21.032;2023-01-20T04:27:28;3.30;99.90
18613;DHT22;9436;52.152;21.032;2023-01-20T04:29:55;3.20;99.90
18613;DHT22;9436;52.152;21.032;2023-01-20T04:32:22;3.30;99.90
18613;DHT22;9436;52.152;21.032;2023-01-20T04:34:49;3.20;99.90
18613;DHT22;9436;52.152;21.032;2023-01-20T04:37:18;3.10;99.90
18613;DHT22;9436;52.152;21.032;2023-01-20T04:39:45;3.20;99.90
18613;DHT22;9436;52.152;21.032;2023-01-20T04:42:13;3.20;99.90
18613;DHT22;9436;52.152;21.032;2023-01-20T04:44:40;3.20;99.90
18613;DHT22;9436;52.152;21.032;2023-01-20T04:47:07;3.20;99.90
18613;DHT22;9436;52.152;21.032;2023-01-20T04:49:35;3.10;99.90
18613;DHT22;9436;52.152;21.032;2023-01-20T04:52:02;3.20;99.90
18613;DHT22;9436;52.152;21.032;2023-01-20T04:54:29;3.30;99.90
18613;DHT22;9436;52.152;21.032;2023-01-20T04:56:56;3.20;99.90
18613;DHT22;9436;52.152;21.032;2023-01-20T04:59:24;3.30;99.90
18613;DHT22;9436;52.152;21.032;2023-01-20T05:01:51;3.40;99.90
18613;DHT22;9436;52.152;21.032;2023-01-20T05:04:19;3.30;99.90
18613;DHT22;9436;52.152;21.032;2023-01-20T05:06:46;3.20;99.90
18613;DHT22;9436;52.152;21.032;2023-01-20T05:09:13;3.20;99.90
18613;DHT22;9436;52.152;21.032;2023-01-20T05:11:41;3.20;99.90
18613;DHT22;9436;52.152;21.032;2023-01-20T05:14:08;3.30;99.90
18613;DHT22;9436;52.152;21.032;2023-01-20T05:16:37;3.30;99.90
18613;DHT22;9436;52.152;21.032;2023-01-20T05:19:04;3.30;99.90
18613;DHT22;9436;52.152;21.032;2023-01-20T05:21:31;3.40;99.90
18613;DHT22;9436;52.152;21.032;2023-01-20T05:23:58;3.40;99.90
18613;DHT22;9436;52.152;21.032;2023-01-20T05:26:26;3.30;99.90
18613;DHT22;9436;52.152;21.032;2023-01-20T05:28:53;3.30;99.90
18613;DHT22;9436;52.152;21.032;2023-01-20T05:31:20;3.50;99.90
18613;DHT22;9436;52.152;21.032;2023-01-20T05:33:49;3.30;99.90
18613;DHT22;9436;52.152;21.032;2023-01-20T05:36:16;3.30;99.90
18613;DHT22;9436;52.152;21.032;2023-01-20T05:38:43;3.30;99.90
18613;DHT22;9436;52.152;21.032;2023-01-20T05:41:10;3.30;99.90
18613;DHT22;9436;52.152;21.032;2023-01-20T05:43:37;3.40;99.90
18613;DHT22;9436;52.152;21.032;2023-01-20T05:46:05;3.50;99.90
18613;DHT22;9436;52.152;21.032;2023-01-20T05:48:32;3.40;99.90
18613;DHT22;9436;52.152;21.032;2023-01-20T05:51:00;3.50;99.90
18613;DHT22;9436;52.152;21.032;2023-01-20T05:53:28;3.40;99.90
18613;DHT22;9436;52.152;21.032;2023-01-20T05:55:58;3.40;99.90
18613;DHT22;9436;52.152;21.032;2023-01-20T05:58:27;3.50;99.90
18613;DHT22;9436;52.152;21.032;2023-01-20T06:00:54;3.50;99.90
18613;DHT22;9436;52.152;21.032;2023-01-20T06:03:21;3.50;99.90
18613;DHT22;9436;52.152;21.032;2023-01-20T06:05:48;3.50;99.90
18613;DHT22;9436;52.152;21.032;2023-01-20T06:08:17;3.60;99.90
18613;DHT22;9436;52.152;21.032;2023-01-20T06:10:44;3.70;99.90
18613;DHT22;9436;52.152;21.032;2023-01-20T06:13:11;3.70;99.90
18613;DHT22;9436;52.152;21.032;2023-01-20T06:15:38;3.70;99.90
18613;DHT22;9436;52.152;21.032;2023-01-20T06:18:05;3.90;99.90
18613;DHT22;9436;52.152;21.032;2023-01-20T06:20:32;4.20;99.90
18613;DHT22;9436;52.152;21.032;2023-01-20T06:22:59;4.60;99.90
18613;DHT22;9436;52.152;21.032;2023-01-20T06:25:27;5.40;99.90
18613;DHT22;9436;52.152;21.032;2023-01-20T06:27:55;6.10;99.90
18613;DHT22;9436;52.152;21.032;2023-01-20T06:30:22;6.40;99.90
18613;DHT22;9436;52.152;21.032;2023-01-20T06:32:49;5.80;99.90
18613;DHT22;9436;52.152;21.032;2023-01-20T06:35:16;5.30;99.90
18613;DHT22;9436;52.152;21.032;2023-01-20T06:37:43;5.10;99.90
18613;DHT22;9436;52.152;21.032;2023-01-20T06:40:11;4.90;99.90
18613;DHT22;9436;52.152;21.032;2023-01-20T06:42:39;5.00;99.90
18613;DHT22;9436;52.152;21.032;2023-01-20T06:45:07;4.90;99.90
18613;DHT22;9436;52.152;21.032;2023-01-20T06:47:34;4.90;99.90
18613;DHT22;9436;52.152;21.032;2023-01-20T06:50:01;4.60;99.90
18613;DHT22;9436;52.152;21.032;2023-01-20T06:52:29;4.70;99.90
18613;DHT22;9436;52.152;21.032;2023-01-20T06:54:56;4.70;99.90
18613;DHT22;9436;52.152;21.032;2023-01-20T06:57:23;4.70;99.90
18613;DHT22;9436;52.152;21.032;2023-01-20T06:59:51;4.70;99.90
18613;DHT22;9436;52.152;21.032;2023-01-20T07:02:18;5.00;99.90
18613;DHT22;9436;52.152;21.032;2023-01-20T07:04:45;5.00;99.90
18613;DHT22;9436;52.152;21.032;2023-01-20T07:07:12;5.20;99.90
18613;DHT22;9436;52.152;21.032;2023-01-20T07:09:40;5.10;99.90
18613;DHT22;9436;52.152;21.032;2023-01-20T07:12:07;5.00;99.90
18613;DHT22;9436;52.152;21.032;2023-01-20T07:14:34;4.70;99.90
18613;DHT22;9436;52.152;21.032;2023-01-20T07:17:02;5.00;99.90
18613;DHT22;9436;52.152;21.032;2023-01-20T07:19:31;5.10;99.90
18613;DHT22;9436;52.152;21.032;2023-01-20T07:21:58;5.40;99.90
18613;DHT22;9436;52.152;21.032;2023-01-20T07:24:25;5.20;99.90
18613;DHT22;9436;52.152;21.032;2023-01-20T07:26:52;5.10;99.90
18613;DHT22;9436;52.152;21.032;2023-01-20T07:29:19;5.00;99.90
18613;DHT22;9436;52.152;21.032;2023-01-20T07:31:46;5.20;99.90
18613;DHT22;9436;52.152;21.032;2023-01-20T07:34:15;5.00;99.90
18613;DHT22;9436;52.152;21.032;2023-01-20T07:36:42;5.60;99.90
18613;DHT22;9436;52.152;21.032;2023-01-20T07:39:09;6.00;99.90
18613;DHT22;9436;52.152;21.032;2023-01-20T07:41:37;5.80;99.90
18613;DHT22;9436;52.152;21.032;2023-01-20T07:44:04;5.80;99.90
18613;DHT22;9436;52.152;21.032;2023-01-20T07:46:31;6.10;99.90
18613;DHT22;9436;52.152;21.032;2023-01-20T07:48:58;6.40;99.90
18613;DHT22;9436;52.152;21.032;2023-01-20T07:51:27;6.10;99.90
18613;DHT22;9436;52.152;21.032;2023-01-20T07:53:54;5.70;99.90
18613;DHT22;9436;52.152;21.032;2023-01-20T07:56:23;5.40;99.90
18613;DHT22;9436;52.152;21.032;2023-01-20T07:58:50;4.80;99.90
18613;DHT22;9436;52.152;21.032;2023-01-20T08:01:20;5.50;99.90
18613;DHT22;9436;52.152;21.032;2023-01-20T08:03:47;5.30;99.90
18613;DHT22;9436;52.152;21.032;2023-01-20T08:06:18;5.00;99.90
18613;DHT22;9436;52.152;21.032;2023-01-20T08:08:47;4.80;99.90
18613;DHT22;9436;52.152;21.032;2023-01-20T08:11:16;4.60;99.90
18613;DHT22;9436;52.152;21.032;2023-01-20T08:13:43;4.30;99.90
18613;DHT22;9436;52.152;21.032;2023-01-20T08:16:12;4.20;99.90
18613;DHT22;9436;52.152;21.032;2023-01-20T08:18:40;4.20;99.90
18613;DHT22;9436;52.152;21.032;2023-01-20T08:21:16;4.10;99.90
18613;DHT22;9436;52.152;21.032;2023-01-20T08:23:43;4.00;99.90
18613;DHT22;9436;52.152;21.032;2023-01-20T08:26:12;3.90;99.90
18613;DHT22;9436;52.152;21.032;2023-01-20T08:28:39;3.90;99.90
18613;DHT22;9436;52.152;21.032;2023-01-20T08:31:08;3.90;99.90
18613;DHT22;9436;52.152;21.032;2023-01-20T08:33:36;3.90;99.90
18613;DHT22;9436;52.152;21.032;2023-01-20T08:36:05;3.80;99.90
18613;DHT22;9436;52.152;21.032;2023-01-20T08:38:33;3.70;99.90
18613;DHT22;9436;52.152;21.032;2023-01-20T08:41:00;3.70;99.90
18613;DHT22;9436;52.152;21.032;2023-01-20T08:43:29;3.70;99.90
18613;DHT22;9436;52.152;21.032;2023-01-20T08:45:59;3.50;99.90
18613;DHT22;9436;52.152;21.032;2023-01-20T08:48:27;3.50;99.90
18613;DHT22;9436;52.152;21.032;2023-01-20T08:50:54;3.50;99.90
18613;DHT22;9436;52.152;21.032;2023-01-20T08:53:21;3.60;99.90
18613;DHT22;9436;52.152;21.032;2023-01-20T08:55:55;3.50;99.90
18613;DHT22;9436;52.152;21.032;2023-01-20T08:58:22;3.60;99.90
18613;DHT22;9436;52.152;21.032;2023-01-20T09:00:51;3.60;99.90
18613;DHT22;9436;52.152;21.032;2023-01-20T09:03:18;5.20;99.90
18613;DHT22;9436;52.152;21.032;2023-01-20T09:05:45;6.30;99.90
18613;DHT22;9436;52.152;21.032;2023-01-20T09:08:14;6.10;99.90
18613;DHT22;9436;52.152;21.032;2023-01-20T09:10:41;5.70;99.90
18613;DHT22;9436;52.152;21.032;2023-01-20T09:13:09;5.10;99.90
18613;DHT22;9436;52.152;21.032;2023-01-20T09:15:36;4.80;99.90
18613;DHT22;9436;52.152;21.032;2023-01-20T09:18:04;4.60;99.90
18613;DHT22;9436;52.152;21.032;2023-01-20T09:20:31;4.50;99.90
18613;DHT22;9436;52.152;21.032;2023-01-20T09:23:00;4.40;99.90
18613;DHT22;9436;52.152;21.032;2023-01-20T09:25:28;4.30;99.90
18613;DHT22;9436;52.152;21.032;2023-01-20T09:27:55;4.30;99.90
18613;DHT22;9436;52.152;21.032;2023-01-20T09:30:25;4.20;99.90
18613;DHT22;9436;52.152;21.032;2023-01-20T09:32:52;4.30;99.90
18613;DHT22;9436;52.152;21.032;2023-01-20T09:35:23;4.20;99.90
18613;DHT22;9436;52.152;21.032;2023-01-20T09:37:50;4.10;99.90
18613;DHT22;9436;52.152;21.032;2023-01-20T09:40:41;4.10;99.90
18613;DHT22;9436;52.152;21.032;2023-01-20T09:43:34;4.00;99.90
18613;DHT22;9436;52.152;21.032;2023-01-20T09:46:31;3.90;99.90
18613;DHT22;9436;52.152;21.032;2023-01-20T09:49:11;3.90;99.90
18613;DHT22;9436;52.152;21.032;2023-01-20T09:52:05;3.80;99.90
18613;DHT22;9436;52.152;21.032;2023-01-20T09:54:55;3.80;99.90
18613;DHT22;9436;52.152;21.032;2023-01-20T09:57:24;3.70;99.90
18613;DHT22;9436;52.152;21.032;2023-01-20T10:00:00;3.80;99.90
18613;DHT22;9436;52.152;21.032;2023-01-20T10:02:34;3.90;99.90
18613;DHT22;9436;52.152;21.032;2023-01-20T10:05:05;3.90;99.90
18613;DHT22;9436;52.152;21.032;2023-01-20T10:07:39;3.80;99.90
18613;DHT22;9436;52.152;21.032;2023-01-20T10:10:12;3.70;99.90
18613;DHT22;9436;52.152;21.032;2023-01-20T10:12:43;3.60;99.90
18613;DHT22;9436;52.152;21.032;2023-01-20T10:15:14;3.60;99.90
18613;DHT22;9436;52.152;21.032;2023-01-20T10:17:48;3.70;99.90
18613;DHT22;9436;52.152;21.032;2023-01-20T10:20:24;3.70;99.90
18613;DHT22;9436;52.152;21.032;2023-01-20T10:22:58;4.00;99.90
18613;DHT22;9436;52.152;21.032;2023-01-20T10:25:29;4.50;99.90
18613;DHT22;9436;52.152;21.032;2023-01-20T10:28:04;4.30;99.90
18613;DHT22;9436;52.152;21.032;2023-01-20T10:30:35;4.30;99.90
18613;DHT22;9436;52.152;21.032;2023-01-20T10:33:08;4.10;99.90
18613;DHT22;9436;52.152;21.032;2023-01-20T10:35:38;3.90;99.90
18613;DHT22;9436;52.152;21.032;2023-01-20T10:38:16;3.80;99.90
18613;DHT22;9436;52.152;21.032;2023-01-20T10:40:50;3.70;99.90
18613;DHT22;9436;52.152;21.032;2023-01-20T10:43:19;3.70;99.90
18613;DHT22;9436;52.152;21.032;2023-01-20T10:45:57;3.70;99.90
18613;DHT22;9436;52.152;21.032;2023-01-20T10:48:49;3.60;99.90
18613;DHT22;9436;52.152;21.032;2023-01-20T10:51:28;3.60;99.90
18613;DHT22;9436;52.152;21.032;2023-01-20T10:54:04;3.50;99.90
18613;DHT22;9436;52.152;21.032;2023-01-20T10:56:37;3.50;99.90
18613;DHT22;9436;52.152;21.032;2023-01-20T10:59:12;3.50;99.90
18613;DHT22;9436;52.152;21.032;2023-01-20T11:01:40;3.50;99.90
18613;DHT22;9436;52.152;21.032;2023-01-20T11:04:17;3.60;99.90
18613;DHT22;9436;52.152;21.032;2023-01-20T11:06:48;3.50;99.90
18613;DHT22;9436;52.152;21.032;2023-01-20T11:09:21;3.50;99.90
18613;DHT22;9436;52.152;21.032;2023-01-20T11:11:49;3.70;99.90
18613;DHT22;9436;52.152;21.032;2023-01-20T11:14:18;3.70;99.90
18613;DHT22;9436;52.152;21.032;2023-01-20T11:16:49;3.60;99.90
18613;DHT22;9436;52.152;21.032;2023-01-20T11:19:16;3.70;99.90
18613;DHT22;9436;52.152;21.032;2023-01-20T11:21:43;3.80;99.90
18613;DHT22;9436;52.152;21.032;2023-01-20T11:24:35;3.90;99.90
18613;DHT22;9436;52.152;21.032;2023-01-20T11:27:12;4.00;99.90
18613;DHT22;9436;52.152;21.032;2023-01-20T11:29:41;4.70;99.90
18613;DHT22;9436;52.152;21.032;2023-01-20T11:32:28;4.50;99.90
18613;DHT22;9436;52.152;21.032;2023-01-20T11:34:56;4.50;99.90
18613;DHT22;9436;52.152;21.032;2023-01-20T11:37:25;4.40;99.90
18613;DHT22;9436;52.152;21.032;2023-01-20T11:39:59;4.20;99.90
18613;DHT22;9436;52.152;21.032;2023-01-20T11:42:27;4.00;99.90
18613;DHT22;9436;52.152;21.032;2023-01-20T11:44:56;4.10;99.90
18613;DHT22;9436;52.152;21.032;2023-01-20T11:47:26;4.20;99.90
18613;DHT22;9436;52.152;21.032;2023-01-20T11:50:17;4.10;99.90
18613;DHT22;9436;52.152;21.032;2023-01-20T11:52:45;4.10;99.90
18613;DHT22;9436;52.152;21.032;2023-01-20T11:55:15;4.10;99.90
18613;DHT22;9436;52.152;21.032;2023-01-20T11:57:45;4.10;99.90
18613;DHT22;9436;52.152;21.032;2023-01-20T12:00:31;4.00;99.90
18613;DHT22;9436;52.152;21.032;2023-01-20T12:03:02;4.00;99.90
18613;DHT22;9436;52.152;21.032;2023-01-20T12:05:34;4.10;99.90
18613;DHT22;9436;52.152;21.032;2023-01-20T12:08:07;4.00;99.90
18613;DHT22;9436;52.152;21.032;2023-01-20T12:10:38;3.90;99.90
18613;DHT22;9436;52.152;21.032;2023-01-20T12:13:15;3.90;99.90
18613;DHT22;9436;52.152;21.032;2023-01-20T12:15:45;3.90;99.90
18613;DHT22;9436;52.152;21.032;2023-01-20T12:18:22;3.80;99.90
18613;DHT22;9436;52.152;21.032;2023-01-20T12:20:58;3.80;99.90
18613;DHT22;9436;52.152;21.032;2023-01-20T12:23:35;3.70;99.90
18613;DHT22;9436;52.152;21.032;2023-01-20T12:26:13;3.60;99.90
18613;DHT22;9436;52.152;21.032;2023-01-20T12:28:50;3.80;99.90
18613;DHT22;9436;52.152;21.032;2023-01-20T12:31:19;3.70;99.90
18613;DHT22;9436;52.152;21.032;2023-01-20T12:33:49;3.60;99.90
18613;DHT22;9436;52.152;21.032;2023-01-20T12:39:42;3.60;99.90
18613;DHT22;9436;52.152;21.032;2023-01-20T12:45:28;3.50;99.90
18613;DHT22;9436;52.152;21.032;2023-01-20T12:48:08;3.60;99.90
18613;DHT22;9436;52.152;21.032;2023-01-20T12:50:52;3.60;99.90
18613;DHT22;9436;52.152;21.032;2023-01-20T12:53:39;3.60;99.90
18613;DHT22;9436;52.152;21.032;2023-01-20T12:56:21;3.60;99.90
18613;DHT22;9436;52.152;21.032;2023-01-20T12:58:59;3.50;99.90
18613;DHT22;9436;52.152;21.032;2023-01-20T13:01:43;3.40;99.90
18613;DHT22;9436;52.152;21.032;2023-01-20T13:04:57;3.30;99.90
18613;DHT22;9436;52.152;21.032;2023-01-20T13:07:37;3.30;99.90
18613;DHT22;9436;52.152;21.032;2023-01-20T13:10:19;3.30;99.90
18613;DHT22;9436;52.152;21.032;2023-01-20T13:12:53;3.30;99.90
18613;DHT22;9436;52.152;21.032;2023-01-20T13:15:26;3.30;99.90
18613;DHT22;9436;52.152;21.032;2023-01-20T13:18:11;3.20;99.90
18613;DHT22;9436;52.152;21.032;2023-01-20T13:20:42;3.20;99.90
18613;DHT22;9436;52.152;21.032;2023-01-20T13:23:12;3.40;99.90
18613;DHT22;9436;52.152;21.032;2023-01-20T13:25:41;3.30;99.90
18613;DHT22;9436;52.152;21.032;2023-01-20T13:28:17;3.50;99.90
18613;DHT22;9436;52.152;21.032;2023-01-20T13:30:47;3.50;99.90
18613;DHT22;9436;52.152;21.032;2023-01-20T13:33:28;3.50;99.90
18613;DHT22;9436;52.152;21.032;2023-01-20T13:35:56;3.60;99.90
18613;DHT22;9436;52.152;21.032;2023-01-20T13:38:25;3.50;99.90
18613;DHT22;9436;52.152;21.032;2023-01-20T13:40:56;3.50;99.90
18613;DHT22;9436;52.152;21.032;2023-01-20T13:43:35;3.40;99.90
18613;DHT22;9436;52.152;21.032;2023-01-20T13:46:39;3.20;99.90
18613;DHT22;9436;52.152;21.032;2023-01-20T13:49:48;3.20;99.90
18613;DHT22;9436;52.152;21.032;2023-01-20T13:55:29;3.30;99.90
18613;DHT22;9436;52.152;21.032;2023-01-20T13:58:15;3.40;99.90
18613;DHT22;9436;52.152;21.032;2023-01-20T14:00:42;3.40;99.90
18613;DHT22;9436;52.152;21.032;2023-01-20T14:03:20;3.40;99.90
18613;DHT22;9436;52.152;21.032;2023-01-20T14:05:48;3.50;99.90
18613;DHT22;9436;52.152;21.032;2023-01-20T14:08:16;4.20;99.90
18613;DHT22;9436;52.152;21.032;2023-01-20T14:10:43;4.60;99.90
18613;DHT22;9436;52.152;21.032;2023-01-20T14:13:10;5.00;99.90
18613;DHT22;9436;52.152;21.032;2023-01-20T14:15:38;5.30;99.90
18613;DHT22;9436;52.152;21.032;2023-01-20T14:18:14;5.20;99.90
18613;DHT22;9436;52.152;21.032;2023-01-20T14:20:41;4.60;99.90
18613;DHT22;9436;52.152;21.032;2023-01-20T14:23:23;4.00;99.90
18613;DHT22;9436;52.152;21.032;2023-01-20T14:26:02;4.00;99.90
18613;DHT22;9436;52.152;21.032;2023-01-20T14:28:29;3.90;99.90
18613;DHT22;9436;52.152;21.032;2023-01-20T14:31:13;3.70;99.90
18613;DHT22;9436;52.152;21.032;2023-01-20T14:33:47;3.80;99.90
18613;DHT22;9436;52.152;21.032;2023-01-20T14:36:19;3.90;99.90
18613;DHT22;9436;52.152;21.032;2023-01-20T14:38:51;3.90;99.90
18613;DHT22;9436;52.152;21.032;2023-01-20T14:41:43;3.90;99.90
18613;DHT22;9436;52.152;21.032;2023-01-20T14:44:19;3.80;99.90
18613;DHT22;9436;52.152;21.032;2023-01-20T14:46:48;4.60;99.90
18613;DHT22;9436;52.152;21.032;2023-01-20T14:49:19;4.80;99.90
18613;DHT22;9436;52.152;21.032;2023-01-20T14:51:48;5.10;99.90
18613;DHT22;9436;52.152;21.032;2023-01-20T14:54:35;5.50;99.90
18613;DHT22;9436;52.152;21.032;2023-01-20T14:57:27;5.60;99.90
18613;DHT22;9436;52.152;21.032;2023-01-20T15:00:20;4.90;99.90
18613;DHT22;9436;52.152;21.032;2023-01-20T15:02:50;4.50;99.90
18613;DHT22;9436;52.152;21.032;2023-01-20T15:05:24;4.20;99.90
18613;DHT22;9436;52.152;21.032;2023-01-20T15:08:15;3.70;99.90
18613;DHT22;9436;52.152;21.032;2023-01-20T15:10:47;4.00;99.90
18613;DHT22;9436;52.152;21.032;2023-01-20T15:13:34;4.70;99.90
18613;DHT22;9436;52.152;21.032;2023-01-20T15:16:15;5.70;99.90
18613;DHT22;9436;52.152;21.032;2023-01-20T15:18:43;5.80;99.90
18613;DHT22;9436;52.152;21.032;2023-01-20T15:21:23;5.20;99.90
18613;DHT22;9436;52.152;21.032;2023-01-20T15:23:51;4.60;99.90
18613;DHT22;9436;52.152;21.032;2023-01-20T15:26:24;4.40;99.90
18613;DHT22;9436;52.152;21.032;2023-01-20T15:28:52;4.10;99.90
18613;DHT22;9436;52.152;21.032;2023-01-20T15:31:20;3.90;99.90
18613;DHT22;9436;52.152;21.032;2023-01-20T15:33:47;4.40;99.90
18613;DHT22;9436;52.152;21.032;2023-01-20T15:36:21;4.90;99.90
18613;DHT22;9436;52.152;21.032;2023-01-20T15:38:49;4.70;99.90
18613;DHT22;9436;52.152;21.032;2023-01-20T15:41:16;4.20;99.90
18613;DHT22;9436;52.152;21.032;2023-01-20T15:43:43;3.80;99.90
18613;DHT22;9436;52.152;21.032;2023-01-20T15:46:12;3.50;99.90
18613;DHT22;9436;52.152;21.032;2023-01-20T15:48:39;3.30;99.90
18613;DHT22;9436;52.152;21.032;2023-01-20T15:51:12;3.60;99.90
18613;DHT22;9436;52.152;21.032;2023-01-20T15:53:41;3.50;99.90
18613;DHT22;9436;52.152;21.032;2023-01-20T15:56:15;3.50;99.90
18613;DHT22;9436;52.152;21.032;2023-01-20T15:58:42;3.20;99.90
18613;DHT22;9436;52.152;21.032;2023-01-20T16:01:12;3.30;99.90
18613;DHT22;9436;52.152;21.032;2023-01-20T16:03:40;3.30;99.90
18613;DHT22;9436;52.152;21.032;2023-01-20T16:06:10;3.30;99.90
18613;DHT22;9436;52.152;21.032;2023-01-20T16:08:37;3.10;99.90
18613;DHT22;9436;52.152;21.032;2023-01-20T16:11:06;3.30;99.90
18613;DHT22;9436;52.152;21.032;2023-01-20T16:13:33;3.10;99.90
18613;DHT22;9436;52.152;21.032;2023-01-20T16:16:01;3.00;99.90
18613;DHT22;9436;52.152;21.032;2023-01-20T16:18:28;2.90;99.90
18613;DHT22;9436;52.152;21.032;2023-01-20T16:20:56;2.80;99.90
18613;DHT22;9436;52.152;21.032;2023-01-20T16:23:23;2.70;99.90
18613;DHT22;9436;52.152;21.032;2023-01-20T16:25:50;2.50;99.90
18613;DHT22;9436;52.152;21.032;2023-01-20T16:28:20;2.60;99.90